01/28 03:43 更新

3,000ftに雲が少し
5,000ftに雲が多い
雲が多い

地上風: 020°4kt
(350°~ 050°で変動)

上空風(熊谷ウインドプロファイラ)
13,000ft: 未計測
10,000ft: 未計測
 7,000ft: 230°8kt
 3,000ft: 290°17kt

地上: 5℃
上空: -15.5℃

日没: 17:04

実況天気図


予想天気図


RJTJ 271843Z 02004KT 350V050 9999 FEW030 BKN050 BKN/// 05/M03 Q1015 RMK 1CU030 5SC050 A2999=

GPV気象予報
気象庁
日本気象協会

玉淀ダム放流量(1,000m3/sを超えた7時間後にDZ冠水)
太郎衛門橋テレメータ水位(11mでDZ冠水)

skydive.jp